KMRN/MRN METAR and TAF weather

Enter ICAO airport designator
Station Type Date Time Source
KMRN METAR 2020/04/06 10:55 UTC NOAA

KMRN 061055Z AUTO 00000KT 10SM CLR 07/06 A3011 RMK AO2 T00700063


Station Type Date Time Source
KMRN Decoded METAR 2020/04/06 10:55 UTC NOAA

Morganton, Morganton-Lenoir Airport, NC, United States (KMRN) 35-49-17N 081-36-39W
Apr 06, 2020 - 06:55 AM EDT / 2020.04.06 1055 UTC
Wind: Calm:0
Visibility: 10 mile(s):0
Sky conditions: clear
Temperature: 44.6 F (7.0 C)
Dew Point: 43.3 F (6.3 C)
Relative Humidity: 95%
Pressure (altimeter): 30.11 in. Hg (1019 hPa)
ob: KMRN 061055Z AUTO 00000KT 10SM CLR 07/06 A3011 RMK AO2 T00700063
cycle: 11

Station Type Date Time Source
KMRN TAF UTC NOAA

Error!

Example: see airport list